createdAt,value
2023-01-13T00:00:17.594Z,25.77
2023-01-13T00:02:44.785Z,24.27
2023-01-13T00:05:11.534Z,25.00
2023-01-13T00:07:40.341Z,28.88
2023-01-13T00:10:10.592Z,23.65
2023-01-13T00:12:40.918Z,28.70
2023-01-13T00:15:07.861Z,30.88
2023-01-13T00:17:34.594Z,26.83
2023-01-13T00:20:01.484Z,23.48
2023-01-13T00:22:28.188Z,29.15
2023-01-13T00:24:55.017Z,22.23
2023-01-13T00:27:24.088Z,27.52
2023-01-13T00:29:50.810Z,29.98
2023-01-13T00:32:17.609Z,33.65
2023-01-13T00:34:44.157Z,24.48
2023-01-13T00:37:13.185Z,27.67
2023-01-13T00:39:39.752Z,31.08
2023-01-13T00:42:25.214Z,20.23
2023-01-13T00:44:51.917Z,28.23
2023-01-13T00:47:18.561Z,26.17
2023-01-13T00:49:45.189Z,24.15
2023-01-13T00:52:12.408Z,24.77
2023-01-13T00:54:39.146Z,28.38
2023-01-13T00:57:05.641Z,26.20
2023-01-13T00:59:32.375Z,29.38
2023-01-13T01:01:59.145Z,26.67
2023-01-13T01:04:25.686Z,26.48
2023-01-13T01:06:52.444Z,21.27
2023-01-13T01:09:19.147Z,27.75
2023-01-13T01:11:46.038Z,18.75
2023-01-13T01:14:13.518Z,27.02
2023-01-13T01:16:41.079Z,29.48
2023-01-13T01:19:08.145Z,25.45
2023-01-13T01:21:35.404Z,21.95
2023-01-13T01:24:02.749Z,32.83
2023-01-13T01:26:29.939Z,24.25
2023-01-13T01:28:56.794Z,30.95
2023-01-13T01:31:25.450Z,27.85
2023-01-13T01:33:53.087Z,33.30
2023-01-13T01:36:20.397Z,33.50
2023-01-13T01:38:47.933Z,20.42
2023-01-13T01:41:15.984Z,24.67
2023-01-13T01:44:07.210Z,28.25
2023-01-13T01:46:34.092Z,29.35
2023-01-13T01:49:03.016Z,24.25
2023-01-13T01:51:32.799Z,21.13
2023-01-13T01:54:00.470Z,26.60
2023-01-13T01:56:27.227Z,21.77
2023-01-13T01:58:54.417Z,27.02
2023-01-13T02:01:21.178Z,29.08
2023-01-13T02:03:53.120Z,21.15
2023-01-13T02:06:19.969Z,21.13
2023-01-13T02:08:46.707Z,25.42
2023-01-13T02:11:48.206Z,23.58
2023-01-13T02:14:15.009Z,17.85
2023-01-13T02:16:45.065Z,19.73
2023-01-13T02:19:34.928Z,22.10
2023-01-13T02:22:01.660Z,20.13
2023-01-13T02:24:53.660Z,21.88
2023-01-13T02:27:36.616Z,19.70
2023-01-13T02:30:33.116Z,16.70
2023-01-13T02:33:25.255Z,11.30
2023-01-13T02:35:52.211Z,9.00
2023-01-13T02:38:21.531Z,14.55
2023-01-13T02:40:56.893Z,10.55
2023-01-13T02:43:44.643Z,8.02
2023-01-13T02:46:15.354Z,9.68
2023-01-13T02:48:44.323Z,6.60
2023-01-13T02:51:13.787Z,12.07
2023-01-13T02:53:46.355Z,7.00
2023-01-13T02:56:15.000Z,8.10
2023-01-13T02:58:42.746Z,11.43
2023-01-13T03:01:09.964Z,17.15
2023-01-13T03:03:36.675Z,9.95
2023-01-13T03:06:22.072Z,14.73
2023-01-13T03:09:17.987Z,14.95
2023-01-13T03:11:50.919Z,14.25
2023-01-13T03:14:25.486Z,11.93
2023-01-13T03:16:52.225Z,12.52
2023-01-13T03:19:18.877Z,10.75
2023-01-13T03:22:01.730Z,9.70
2023-01-13T03:24:35.360Z,11.32
2023-01-13T03:27:02.020Z,9.98
2023-01-13T03:29:32.549Z,14.27
2023-01-13T03:31:59.299Z,10.38
2023-01-13T03:34:29.730Z,15.07
2023-01-13T03:36:58.692Z,19.38
2023-01-13T03:39:31.521Z,12.68
2023-01-13T03:42:00.983Z,15.18
2023-01-13T03:44:47.831Z,13.82
2023-01-13T03:47:33.352Z,15.57
2023-01-13T03:50:02.756Z,17.25
2023-01-13T03:52:32.585Z,17.75
2023-01-13T03:55:02.930Z,19.40
2023-01-13T03:57:31.287Z,21.63
2023-01-13T04:00:00.436Z,17.13
2023-01-13T04:02:30.261Z,13.05
2023-01-13T04:04:58.683Z,22.58
2023-01-13T04:07:28.298Z,18.25
2023-01-13T04:09:56.561Z,23.45
2023-01-13T04:12:48.836Z,17.88
2023-01-13T04:15:16.819Z,21.60
2023-01-13T04:17:43.330Z,19.10
2023-01-13T04:20:10.493Z,24.17
2023-01-13T04:22:37.201Z,25.50
2023-01-13T04:25:04.103Z,17.77
2023-01-13T04:27:30.825Z,21.48
2023-01-13T04:29:57.402Z,10.43
2023-01-13T04:32:24.000Z,14.90
2023-01-13T04:34:50.562Z,14.65
2023-01-13T04:37:17.208Z,21.33
2023-01-13T04:39:43.740Z,15.60
2023-01-13T04:42:10.265Z,20.17
2023-01-13T04:44:37.014Z,21.50
2023-01-13T04:47:03.899Z,19.45
2023-01-13T04:49:30.868Z,19.67
2023-01-13T04:51:57.479Z,18.15
2023-01-13T04:54:24.058Z,20.85
2023-01-13T04:56:50.720Z,28.75
2023-01-13T04:59:20.169Z,23.25
2023-01-13T05:01:46.906Z,20.73
2023-01-13T05:04:15.569Z,15.13
2023-01-13T05:06:42.634Z,17.77
2023-01-13T05:09:09.413Z,21.05
2023-01-13T05:11:54.592Z,15.00
2023-01-13T05:14:39.847Z,22.75
2023-01-13T05:19:34.775Z,21.45
2023-01-13T05:22:20.603Z,25.63
2023-01-13T05:25:05.819Z,20.08
2023-01-13T05:27:32.804Z,18.13
2023-01-13T05:29:59.567Z,14.77
2023-01-13T05:32:28.105Z,19.05
2023-01-13T05:34:55.986Z,25.83
2023-01-13T05:37:23.280Z,25.85
2023-01-13T05:40:08.531Z,19.92
2023-01-13T05:42:53.494Z,26.23
2023-01-13T05:45:22.144Z,17.92
2023-01-13T05:47:49.103Z,20.75
2023-01-13T05:50:15.985Z,29.88
2023-01-13T05:52:43.679Z,25.15
2023-01-13T05:55:10.995Z,19.42
2023-01-13T05:57:37.780Z,24.30
2023-01-13T06:00:05.368Z,25.23
2023-01-13T06:02:38.491Z,25.83
2023-01-13T06:05:05.590Z,22.73
2023-01-13T06:07:32.792Z,31.33
2023-01-13T06:09:59.399Z,20.05
2023-01-13T06:12:26.236Z,30.00
2023-01-13T06:14:52.905Z,22.83
2023-01-13T06:17:19.585Z,23.95
2023-01-13T06:19:46.408Z,22.42
2023-01-13T06:22:22.302Z,22.80
2023-01-13T06:24:53.769Z,21.85
2023-01-13T06:27:21.007Z,19.63
2023-01-13T06:29:47.707Z,21.40
2023-01-13T06:32:20.092Z,18.80
2023-01-13T06:34:49.934Z,21.42
2023-01-13T06:37:20.017Z,18.90
2023-01-13T06:39:46.688Z,23.05
2023-01-13T06:42:32.110Z,20.15
2023-01-13T06:44:58.843Z,20.83
2023-01-13T06:47:25.354Z,22.95
2023-01-13T06:49:52.455Z,28.13
2023-01-13T06:52:19.100Z,25.65
2023-01-13T06:54:45.826Z,28.40
2023-01-13T06:57:12.511Z,29.27
2023-01-13T06:59:39.857Z,32.65
2023-01-13T07:02:06.715Z,22.48
2023-01-13T07:04:35.781Z,23.48
2023-01-13T07:07:02.763Z,22.25
2023-01-13T07:09:29.439Z,17.80
2023-01-13T07:12:03.784Z,23.17
2023-01-13T07:14:55.344Z,23.38
2023-01-13T07:17:27.899Z,21.95
2023-01-13T07:22:28.284Z,28.35
2023-01-13T07:24:59.729Z,24.35
2023-01-13T10:55:25.319Z,21.70
2023-01-13T10:57:52.067Z,16.95
2023-01-13T11:00:32.617Z,24.15
2023-01-13T11:03:12.850Z,18.25
2023-01-13T11:05:39.595Z,18.85
2023-01-13T11:08:15.365Z,13.20
2023-01-13T11:10:45.554Z,21.15
2023-01-13T11:13:16.583Z,22.50
2023-01-13T11:15:55.694Z,15.20
2023-01-13T11:18:31.491Z,12.77
2023-01-13T11:20:58.869Z,17.48
2023-01-13T11:23:37.088Z,17.70
2023-01-13T11:26:14.703Z,16.77
2023-01-13T11:28:41.281Z,20.83
2023-01-13T11:31:08.053Z,14.95
2023-01-13T11:33:40.863Z,15.90
2023-01-13T11:36:20.389Z,16.67
2023-01-13T11:38:48.229Z,19.23
2023-01-13T11:41:25.227Z,20.52
2023-01-13T11:43:55.404Z,27.88
2023-01-13T11:46:27.762Z,17.33
2023-01-13T11:48:56.502Z,14.93
2023-01-13T11:51:38.463Z,25.17
2023-01-13T11:54:05.317Z,16.42
2023-01-13T11:56:34.827Z,15.40
2023-01-13T11:59:12.446Z,21.30
2023-01-13T12:02:11.729Z,13.40
2023-01-13T12:04:46.848Z,17.95
2023-01-13T12:07:15.939Z,16.02
2023-01-13T12:10:03.724Z,21.50
2023-01-13T12:12:37.005Z,18.75
2023-01-13T12:15:04.252Z,15.18
2023-01-13T12:17:39.366Z,19.25
2023-01-13T12:20:25.080Z,20.25
2023-01-13T12:22:53.116Z,18.80
2023-01-13T12:25:54.955Z,15.93
2023-01-13T12:31:24.459Z,17.63
2023-01-13T12:34:10.134Z,18.33
2023-01-13T12:36:51.874Z,15.60
2023-01-13T12:39:18.470Z,16.65
2023-01-13T12:42:06.309Z,18.40
2023-01-13T12:44:33.445Z,17.08
2023-01-13T12:47:00.236Z,13.35
2023-01-13T12:49:28.307Z,16.30
2023-01-13T12:51:54.853Z,19.98
2023-01-13T12:54:30.768Z,20.05
2023-01-13T13:25:07.778Z,21.23
2023-01-13T14:17:25.762Z,17.67
2023-01-13T14:20:07.858Z,21.38
2023-01-13T14:22:34.755Z,22.38
2023-01-13T14:25:02.169Z,13.35
2023-01-13T14:27:30.068Z,22.42
2023-01-13T14:30:01.578Z,16.67
2023-01-13T15:43:15.447Z,17.50
2023-01-13T15:49:01.826Z,22.13
2023-01-13T15:51:28.656Z,24.02
2023-01-13T15:53:55.528Z,19.45
2023-01-13T15:56:26.778Z,19.90
2023-01-13T15:58:53.605Z,21.98
2023-01-13T16:01:21.016Z,16.27
2023-01-13T16:03:48.027Z,21.80
2023-01-13T16:06:19.413Z,22.58
2023-01-13T16:08:46.553Z,23.80
2023-01-13T16:11:13.151Z,20.92
2023-01-13T16:13:40.214Z,26.38
2023-01-13T16:16:18.778Z,16.90
2023-01-13T16:18:45.532Z,26.42
2023-01-13T16:21:12.386Z,26.70
2023-01-13T16:23:39.204Z,22.90
2023-01-13T16:26:06.422Z,22.60
2023-01-13T16:28:35.544Z,19.63
2023-01-13T16:31:15.097Z,19.38
2023-01-13T16:33:41.777Z,23.73
2023-01-13T16:36:14.029Z,28.15
2023-01-13T16:38:41.300Z,21.52
2023-01-13T16:41:08.743Z,21.88
2023-01-13T16:43:36.152Z,25.15
2023-01-13T16:46:03.173Z,22.45
2023-01-13T16:48:30.332Z,19.83
2023-01-13T16:50:57.009Z,17.63
2023-01-13T16:53:23.850Z,19.77
2023-01-13T16:55:50.477Z,26.08
2023-01-13T16:58:18.434Z,19.48
2023-01-13T17:00:48.599Z,23.90
2023-01-13T17:03:15.980Z,26.77
2023-01-13T17:05:43.467Z,18.77
2023-01-13T17:08:17.291Z,20.70
2023-01-13T17:10:44.521Z,25.67
2023-01-13T17:13:16.324Z,28.98
2023-01-13T17:15:44.069Z,16.15
2023-01-13T17:18:11.522Z,23.92
2023-01-13T17:20:38.345Z,22.80
2023-01-13T17:23:04.959Z,19.38
2023-01-13T17:25:31.993Z,21.98
2023-01-13T17:27:58.704Z,16.80
2023-01-13T17:30:25.392Z,18.70
2023-01-13T17:32:52.064Z,21.90
2023-01-13T17:35:22.999Z,18.83
2023-01-13T17:37:49.730Z,19.58
2023-01-13T17:40:17.302Z,22.65
2023-01-13T17:42:43.863Z,22.77
2023-01-13T17:45:13.545Z,18.80
2023-01-13T17:47:40.290Z,21.17
2023-01-13T17:50:06.890Z,16.92
2023-01-13T17:52:33.972Z,22.92
2023-01-13T17:55:00.506Z,23.10
2023-01-13T17:57:27.133Z,19.30
2023-01-13T17:59:53.686Z,15.98
2023-01-13T18:02:22.805Z,28.60
2023-01-13T18:04:49.421Z,19.75
2023-01-13T18:07:16.707Z,21.70
2023-01-13T18:09:43.323Z,22.83
2023-01-13T18:12:10.656Z,25.73
2023-01-13T18:14:37.735Z,19.48
2023-01-13T18:17:04.673Z,19.00
2023-01-13T18:19:50.262Z,13.93
2023-01-13T18:22:35.863Z,16.63
2023-01-13T18:25:22.049Z,14.05
2023-01-13T18:27:48.937Z,12.77
2023-01-13T18:30:15.614Z,14.43
2023-01-13T18:32:42.440Z,13.25
2023-01-13T18:35:10.580Z,14.93
2023-01-13T18:37:40.128Z,15.02
2023-01-13T18:40:07.841Z,14.63
2023-01-13T18:42:56.313Z,13.75
2023-01-13T18:45:32.767Z,15.52
2023-01-13T18:48:00.829Z,18.10
2023-01-13T18:50:28.296Z,17.02
2023-01-13T18:52:55.520Z,12.95
2023-01-13T18:55:22.530Z,17.73
2023-01-13T18:57:49.282Z,17.55
2023-01-13T19:00:17.580Z,17.88
2023-01-13T19:02:44.460Z,14.85
2023-01-13T19:05:11.210Z,18.00
2023-01-13T19:07:37.916Z,14.68
2023-01-13T19:10:05.675Z,15.52
2023-01-13T19:12:33.740Z,18.08
2023-01-13T19:15:00.954Z,19.50
2023-01-13T19:17:31.012Z,19.27
2023-01-13T19:19:59.409Z,16.85
2023-01-13T19:22:28.618Z,16.48
2023-01-13T19:24:55.286Z,19.52
2023-01-13T19:27:21.863Z,19.25
2023-01-13T19:29:51.917Z,16.33
2023-01-13T19:32:22.496Z,16.45
2023-01-13T19:34:51.088Z,16.45
2023-01-13T19:37:17.995Z,15.23
2023-01-13T19:39:44.734Z,17.40
2023-01-13T19:42:30.710Z,14.77
2023-01-13T19:45:16.387Z,17.75
2023-01-13T19:47:45.764Z,19.13
2023-01-13T19:50:13.681Z,19.13
2023-01-13T19:52:41.499Z,18.80
2023-01-13T19:55:08.263Z,10.10
2023-01-13T19:57:35.023Z,13.13
2023-01-13T20:00:01.786Z,16.15
2023-01-13T20:02:28.810Z,12.05
2023-01-13T20:04:56.152Z,18.40
2023-01-13T20:07:24.003Z,21.02
2023-01-13T20:09:51.717Z,15.18
2023-01-13T20:12:20.081Z,16.05
2023-01-13T20:14:50.144Z,17.40
2023-01-13T20:17:18.261Z,17.80
2023-01-13T20:19:44.934Z,19.65
2023-01-13T20:22:12.938Z,15.75
2023-01-13T20:24:39.607Z,24.88
2023-01-13T20:27:06.322Z,20.60
2023-01-13T20:29:34.168Z,20.60
2023-01-13T20:32:01.118Z,11.15
2023-01-13T20:34:27.992Z,18.52
2023-01-13T20:36:54.615Z,26.50
2023-01-13T20:39:22.477Z,21.75
2023-01-13T20:42:08.329Z,24.45
2023-01-13T20:44:35.454Z,17.95
2023-01-13T20:47:02.963Z,15.10
2023-01-13T20:49:30.411Z,20.65
2023-01-13T20:51:57.529Z,15.35
2023-01-13T20:54:24.513Z,18.25
2023-01-13T20:56:54.847Z,17.55
2023-01-13T20:59:23.170Z,16.15
2023-01-13T21:01:49.883Z,18.98
2023-01-13T21:04:17.706Z,19.00
2023-01-13T21:06:44.571Z,11.65
2023-01-13T21:09:11.337Z,19.42
2023-01-13T21:11:56.655Z,17.85
2023-01-13T21:14:45.622Z,16.65
2023-01-13T21:17:32.721Z,13.20
2023-01-13T21:19:59.466Z,16.42
2023-01-13T21:22:26.650Z,13.30
2023-01-13T21:24:53.487Z,12.63
2023-01-13T21:27:21.739Z,12.55
2023-01-13T21:29:48.428Z,19.80
2023-01-13T21:32:15.170Z,17.42
2023-01-13T21:34:41.953Z,18.52
2023-01-13T21:37:08.550Z,15.95
2023-01-13T21:39:35.229Z,14.45
2023-01-13T21:42:22.203Z,17.73
2023-01-13T21:45:07.698Z,17.08
2023-01-13T21:47:49.699Z,24.75
2023-01-13T21:50:17.912Z,22.38
2023-01-13T21:52:44.987Z,20.88
2023-01-13T21:55:24.020Z,18.55
2023-01-13T21:58:01.225Z,17.85
2023-01-13T22:00:29.317Z,19.02
2023-01-13T22:02:56.266Z,12.15
2023-01-13T22:05:24.318Z,20.02
2023-01-13T22:07:51.253Z,14.75
2023-01-13T22:10:19.427Z,19.58
2023-01-13T22:12:47.015Z,13.02
2023-01-13T22:15:15.346Z,15.93
2023-01-13T22:17:42.458Z,17.75
2023-01-13T22:20:12.259Z,19.23
2023-01-13T22:22:39.081Z,19.55
2023-01-13T22:25:07.416Z,20.85
2023-01-13T22:27:39.661Z,16.85
2023-01-13T22:30:11.502Z,13.57
2023-01-13T22:32:38.650Z,12.70
2023-01-13T22:35:06.505Z,17.92
2023-01-13T22:37:33.405Z,12.88
2023-01-13T22:40:00.312Z,19.30
2023-01-13T22:42:27.115Z,10.93
2023-01-13T22:44:53.677Z,15.98
2023-01-13T22:47:20.483Z,18.40
2023-01-13T22:49:47.901Z,16.10
2023-01-13T22:52:17.579Z,15.27
2023-01-13T22:54:50.300Z,20.10
2023-01-13T22:57:17.164Z,14.32
2023-01-13T22:59:43.973Z,15.90
2023-01-13T23:02:10.722Z,18.65
2023-01-13T23:04:37.576Z,13.55
2023-01-13T23:07:04.437Z,17.75
2023-01-13T23:09:31.127Z,15.48
2023-01-13T23:11:58.877Z,15.77
2023-01-13T23:14:25.501Z,12.38
2023-01-13T23:16:52.337Z,15.32
2023-01-13T23:19:19.113Z,15.13
2023-01-13T23:21:45.885Z,14.65
2023-01-13T23:24:12.798Z,12.45
2023-01-13T23:26:39.823Z,15.18
2023-01-13T23:29:08.213Z,14.40
2023-01-13T23:31:35.317Z,16.35
2023-01-13T23:34:02.081Z,17.02
2023-01-13T23:36:29.246Z,13.75
2023-01-13T23:38:57.437Z,19.67
2023-01-13T23:41:25.354Z,12.95
2023-01-13T23:43:53.002Z,13.20
2023-01-13T23:46:20.511Z,11.88
2023-01-13T23:48:47.223Z,23.70
2023-01-13T23:51:13.950Z,16.25
2023-01-13T23:53:50.659Z,18.58
2023-01-13T23:56:21.734Z,14.88
2023-01-13T23:58:48.875Z,17.90
